createdAt,value
2023-04-02T00:01:48.207Z,99.90
2023-04-02T00:06:54.531Z,99.90
2023-04-02T00:11:57.129Z,99.90
2023-04-02T00:17:01.354Z,99.90
2023-04-02T00:22:07.200Z,99.90
2023-04-02T00:27:14.084Z,99.90
2023-04-02T00:32:30.656Z,99.90
2023-04-02T00:37:39.224Z,99.90
2023-04-02T00:42:41.209Z,99.90
2023-04-02T00:47:43.532Z,99.90
2023-04-02T00:52:48.310Z,99.90
2023-04-02T00:57:51.092Z,99.90
2023-04-02T01:03:17.802Z,99.90
2023-04-02T01:08:29.041Z,99.90
2023-04-02T01:13:45.736Z,99.90
2023-04-02T01:19:42.478Z,99.90
2023-04-02T01:24:44.763Z,99.90
2023-04-02T01:29:53.315Z,99.90
2023-04-02T01:34:56.646Z,99.90
2023-04-02T01:40:17.871Z,99.90
2023-04-02T01:45:21.834Z,99.90
2023-04-02T01:50:31.782Z,99.90
2023-04-02T01:55:44.781Z,99.90
2023-04-02T02:00:52.992Z,99.90
2023-04-02T02:05:55.616Z,99.70
2023-04-02T02:10:58.424Z,99.90
2023-04-02T02:16:01.578Z,98.80
2023-04-02T02:21:05.284Z,98.60
2023-04-02T02:26:07.455Z,98.60
2023-04-02T02:31:22.814Z,98.70
2023-04-02T02:36:33.603Z,98.40
2023-04-02T02:41:45.857Z,99.40
2023-04-02T02:46:56.802Z,99.70
2023-04-02T02:52:04.036Z,99.90
2023-04-02T02:57:11.256Z,99.90
2023-04-02T03:02:15.226Z,99.90
2023-04-02T03:07:19.299Z,99.90
2023-04-02T03:12:53.187Z,99.90
2023-04-02T03:18:03.452Z,99.90
2023-04-02T03:23:23.544Z,99.90
2023-04-02T03:28:30.104Z,99.90
2023-04-02T03:33:40.872Z,99.90
2023-04-02T03:38:47.094Z,99.90
2023-04-02T03:43:56.247Z,99.90
2023-04-02T03:49:02.146Z,99.90
2023-04-02T03:54:04.498Z,99.90
2023-04-02T03:59:20.792Z,99.90
2023-04-02T04:04:25.507Z,99.90
2023-04-02T04:09:35.431Z,99.90
2023-04-02T04:14:43.346Z,99.90
2023-04-02T04:19:48.324Z,99.90
2023-04-02T04:24:50.285Z,99.90
2023-04-02T04:29:59.918Z,99.70
2023-04-02T04:35:15.934Z,99.90
2023-04-02T04:40:31.376Z,99.30
2023-04-02T04:45:56.486Z,98.60
2023-04-02T04:51:09.224Z,98.50
2023-04-02T04:56:18.639Z,98.10
2023-04-02T05:01:36.449Z,97.90
2023-04-02T05:06:53.975Z,96.10
2023-04-02T05:12:36.894Z,93.50
2023-04-02T05:17:57.012Z,89.70
2023-04-02T05:23:19.823Z,85.70
2023-04-02T05:28:37.755Z,84.70
2023-04-02T05:33:40.827Z,78.70
2023-04-02T05:38:47.629Z,77.10
2023-04-02T05:43:56.568Z,74.80
2023-04-02T05:49:00.145Z,74.10
2023-04-02T05:54:05.126Z,76.20
2023-04-02T05:59:21.676Z,78.00
2023-04-02T06:04:23.479Z,77.10
2023-04-02T06:09:38.886Z,76.00
2023-04-02T06:14:40.769Z,77.40
2023-04-02T06:19:43.498Z,77.90
2023-04-02T06:24:50.659Z,78.30
2023-04-02T06:29:56.945Z,74.80
2023-04-02T06:34:58.903Z,73.60
2023-04-02T06:40:02.565Z,67.50
2023-04-02T06:45:05.115Z,62.50
2023-04-02T06:50:12.318Z,57.50
2023-04-02T06:55:43.432Z,53.40
2023-04-02T07:00:47.957Z,49.50
2023-04-02T07:05:49.730Z,50.50
2023-04-02T07:10:51.703Z,44.40
2023-04-02T07:15:54.876Z,36.40
2023-04-02T07:20:57.712Z,38.90
2023-04-02T07:25:59.577Z,42.30
2023-04-02T07:31:01.439Z,40.00
2023-04-02T07:36:03.415Z,38.80
2023-04-02T07:41:06.722Z,38.70
2023-04-02T07:46:09.924Z,38.00
2023-04-02T07:51:24.244Z,38.10
2023-04-02T07:56:27.284Z,36.30
2023-04-02T08:01:29.535Z,39.00
2023-04-02T08:06:31.620Z,36.60
2023-04-02T08:11:33.318Z,38.60
2023-04-02T08:16:55.690Z,37.50
2023-04-02T08:21:57.710Z,39.20
2023-04-02T08:26:59.482Z,33.80
2023-04-02T08:32:02.069Z,36.00
2023-04-02T08:37:03.886Z,34.40
2023-04-02T08:42:24.454Z,33.30
2023-04-02T08:47:29.916Z,34.50
2023-04-02T08:52:36.943Z,34.00
2023-04-02T08:58:13.392Z,31.30
2023-04-02T09:03:38.739Z,33.50
2023-04-02T09:08:43.285Z,31.10
2023-04-02T09:13:47.964Z,31.40
2023-04-02T09:18:53.974Z,32.40
2023-04-02T09:23:56.106Z,32.30
2023-04-02T09:29:13.393Z,30.40
2023-04-02T09:34:33.168Z,31.80
2023-04-02T09:39:35.629Z,29.60
2023-04-02T09:44:37.378Z,31.20
2023-04-02T09:49:40.768Z,30.60
2023-04-02T09:54:42.975Z,28.00
2023-04-02T09:59:44.984Z,32.00
2023-04-02T10:04:49.496Z,30.60
2023-04-02T10:09:59.179Z,31.30
2023-04-02T10:15:03.338Z,30.80
2023-04-02T10:20:19.968Z,33.30
2023-04-02T10:25:26.240Z,34.80
2023-04-02T10:30:41.642Z,38.10
2023-04-02T10:36:11.437Z,37.80
2023-04-02T10:41:19.238Z,37.10
2023-04-02T10:46:48.526Z,35.70
2023-04-02T10:52:13.668Z,41.40
2023-04-02T10:57:38.501Z,44.20
2023-04-02T11:03:06.201Z,45.00
2023-04-02T11:08:21.487Z,54.60
2023-04-02T11:13:31.207Z,56.00
2023-04-02T11:18:38.591Z,51.20
2023-04-02T11:23:56.375Z,50.80
2023-04-02T11:29:22.640Z,52.00
2023-04-02T11:34:56.277Z,50.30
2023-04-02T11:40:11.122Z,53.00
2023-04-02T11:45:26.223Z,51.50
2023-04-02T11:50:33.235Z,50.50
2023-04-02T11:55:36.785Z,52.10
2023-04-02T12:01:12.088Z,51.20
2023-04-02T12:06:52.853Z,51.10
2023-04-02T12:12:01.948Z,47.60
2023-04-02T12:17:08.494Z,48.40
2023-04-02T12:22:23.435Z,48.20
2023-04-02T12:27:27.943Z,49.20
2023-04-02T12:32:31.202Z,50.40
2023-04-02T12:37:33.041Z,50.00
2023-04-02T12:42:37.142Z,49.20
2023-04-02T12:47:45.065Z,48.80
2023-04-02T12:52:53.415Z,51.50
2023-04-02T12:57:56.884Z,48.60
2023-04-02T13:03:05.136Z,50.70
2023-04-02T13:08:16.508Z,48.90
2023-04-02T13:13:24.545Z,49.90
2023-04-02T13:18:26.339Z,50.60
2023-04-02T13:23:31.030Z,50.00
2023-04-02T13:28:32.874Z,52.40
2023-04-02T13:33:40.948Z,49.90
2023-04-02T13:38:42.870Z,49.70
2023-04-02T13:43:44.640Z,50.00
2023-04-02T13:48:46.934Z,47.70
2023-04-02T13:53:52.606Z,47.80
2023-04-02T13:58:54.387Z,47.90
2023-04-02T14:03:58.211Z,48.30
2023-04-02T14:09:24.502Z,48.90
2023-04-02T14:14:38.320Z,48.30
2023-04-02T14:20:12.365Z,48.40
2023-04-02T14:25:31.754Z,48.80
2023-04-02T14:30:52.046Z,48.60
2023-04-02T14:36:05.128Z,49.20
2023-04-02T14:41:17.648Z,49.80
2023-04-02T14:46:19.848Z,49.00
2023-04-02T14:51:24.758Z,50.10
2023-04-02T14:56:27.741Z,57.00
2023-04-02T15:01:43.182Z,56.60
2023-04-02T15:06:49.696Z,55.70
2023-04-02T15:11:56.741Z,56.10
2023-04-02T15:16:58.580Z,57.20
2023-04-02T15:22:09.295Z,58.40
2023-04-02T15:27:28.041Z,58.60
2023-04-02T15:32:32.586Z,59.10
2023-04-02T15:37:59.438Z,60.30
2023-04-02T15:43:25.842Z,58.40
2023-04-02T15:48:39.776Z,57.80
2023-04-02T15:53:51.837Z,59.30
2023-04-02T15:58:56.822Z,58.30
2023-04-02T16:04:18.869Z,59.20
2023-04-02T16:09:30.857Z,60.40
2023-04-02T16:14:33.924Z,59.50
2023-04-02T16:19:41.248Z,59.40
2023-04-02T16:24:46.057Z,61.30
2023-04-02T16:30:01.055Z,63.00
2023-04-02T16:35:41.680Z,62.70
2023-04-02T16:41:08.272Z,62.30
2023-04-02T16:52:00.341Z,62.10
2023-04-02T16:57:31.755Z,61.80
2023-04-02T17:03:04.050Z,61.60
2023-04-02T17:08:22.413Z,61.50
2023-04-02T17:13:44.950Z,62.30
2023-04-02T17:18:49.484Z,60.80
2023-04-02T17:24:06.346Z,58.30
2023-04-02T17:29:13.658Z,56.70
2023-04-02T17:34:18.451Z,54.90
2023-04-02T17:39:42.567Z,53.40
2023-04-02T17:45:19.782Z,52.70
2023-04-02T17:50:46.183Z,51.00
2023-04-02T17:56:03.231Z,50.60
2023-04-02T18:01:32.511Z,50.20
2023-04-02T18:07:13.591Z,50.40
2023-04-02T18:12:34.451Z,49.40
2023-04-02T18:17:53.219Z,48.90
2023-04-02T18:23:25.776Z,49.20
2023-04-02T18:28:36.304Z,49.90
2023-04-02T18:33:55.654Z,49.60
2023-04-02T18:39:06.591Z,49.90
2023-04-02T18:44:44.733Z,49.80
2023-04-02T18:49:58.291Z,49.70
2023-04-02T18:55:13.407Z,50.90
2023-04-02T19:00:21.144Z,50.40
2023-04-02T19:05:36.656Z,52.40
2023-04-02T19:10:43.302Z,52.80
2023-04-02T19:16:17.775Z,52.00
2023-04-02T19:21:47.636Z,51.70
2023-04-02T19:26:54.088Z,51.60
2023-04-02T19:32:22.867Z,51.60
2023-04-02T19:37:43.920Z,52.10
2023-04-02T19:42:51.473Z,51.80
2023-04-02T19:47:53.815Z,52.60
2023-04-02T19:52:55.624Z,52.10
2023-04-02T19:58:08.493Z,52.90
2023-04-02T20:03:19.056Z,52.70
2023-04-02T20:08:21.258Z,53.80
2023-04-02T20:13:22.972Z,54.20
2023-04-02T20:18:25.927Z,53.20
2023-04-02T20:23:27.715Z,53.80
2023-04-02T20:28:30.407Z,53.30
2023-04-02T20:33:32.607Z,54.10
2023-04-02T20:38:35.824Z,55.30
2023-04-02T20:43:40.597Z,55.00
2023-04-02T20:48:43.226Z,55.00
2023-04-02T20:53:45.002Z,54.10
2023-04-02T20:58:46.773Z,55.50
2023-04-02T21:03:49.587Z,54.30
2023-04-02T21:08:52.033Z,53.90
2023-04-02T21:13:53.868Z,54.00
2023-04-02T21:18:58.343Z,55.00
2023-04-02T21:24:03.464Z,54.60
2023-04-02T21:29:06.259Z,55.70
2023-04-02T21:34:09.506Z,55.70
2023-04-02T21:39:20.542Z,56.10
2023-04-02T21:44:24.216Z,55.90
2023-04-02T21:49:27.335Z,56.80
2023-04-02T21:54:29.551Z,57.00
2023-04-02T21:59:31.315Z,56.50
2023-04-02T22:04:33.458Z,57.20
2023-04-02T22:09:35.585Z,57.00
2023-04-02T22:14:37.281Z,57.30
2023-04-02T22:19:39.035Z,57.90
2023-04-02T22:24:40.807Z,59.00
2023-04-02T22:29:42.486Z,58.50
2023-04-02T22:34:45.733Z,59.30
2023-04-02T22:39:47.648Z,60.30
2023-04-02T22:44:49.559Z,59.50
2023-04-02T22:49:51.339Z,61.30
2023-04-02T22:54:53.074Z,60.50
2023-04-02T22:59:54.929Z,60.50
2023-04-02T23:04:56.783Z,60.70
2023-04-02T23:09:58.503Z,61.10
2023-04-02T23:15:02.267Z,61.30
2023-04-02T23:20:08.581Z,61.50
2023-04-02T23:25:10.843Z,61.80
2023-04-02T23:30:12.695Z,62.40
2023-04-02T23:35:14.553Z,63.50
2023-04-02T23:40:16.756Z,64.00
2023-04-02T23:45:18.569Z,64.70
2023-04-02T23:50:20.549Z,64.20
2023-04-02T23:55:22.234Z,64.90
